sensor_id;sensor_type;location;lat;lon;timestamp;pressure;altitude;pressure_sealevel;temperature;humidity
68320;BME280;55168;51.120;17.024;2023-02-13T00:00:00;102240;;;4.1;100.0
68320;BME280;55168;51.120;17.024;2023-02-13T00:01:00;102240;;;4.1;100.0
68320;BME280;55168;51.120;17.024;2023-02-13T00:02:00;102240;;;4.1;100.0
68320;BME280;55168;51.120;17.024;2023-02-13T00:03:00;102240;;;4.1;100.0
68320;BME280;55168;51.120;17.024;2023-02-13T00:04:00;102240;;;4.1;100.0
68320;BME280;55168;51.120;17.024;2023-02-13T00:05:00;102240;;;4.1;100.0
68320;BME280;55168;51.120;17.024;2023-02-13T00:06:00;102240;;;4.1;100.0
68320;BME280;55168;51.120;17.024;2023-02-13T00:07:00;102240;;;4.1;100.0
68320;BME280;55168;51.120;17.024;2023-02-13T00:08:00;102240;;;4.1;100.0
68320;BME280;55168;51.120;17.024;2023-02-13T00:09:00;102240;;;4.1;100.0
68320;BME280;55168;51.120;17.024;2023-02-13T00:10:00;102240;;;4.1;100.0
68320;BME280;55168;51.120;17.024;2023-02-13T00:11:00;102230;;;4.1;100.0
68320;BME280;55168;51.120;17.024;2023-02-13T00:12:00;102230;;;4.1;100.0
68320;BME280;55168;51.120;17.024;2023-02-13T00:13:00;102230;;;4.1;100.0
68320;BME280;55168;51.120;17.024;2023-02-13T00:14:00;102230;;;4.1;100.0
68320;BME280;55168;51.120;17.024;2023-02-13T00:15:00;102230;;;4.1;100.0
68320;BME280;55168;51.120;17.024;2023-02-13T00:16:00;102230;;;4.1;100.0
68320;BME280;55168;51.120;17.024;2023-02-13T00:17:00;102230;;;4.1;100.0
68320;BME280;55168;51.120;17.024;2023-02-13T00:18:00;102230;;;4.1;100.0
68320;BME280;55168;51.120;17.024;2023-02-13T00:19:00;102230;;;4.1;100.0
68320;BME280;55168;51.120;17.024;2023-02-13T00:20:00;102230;;;4.1;100.0
68320;BME280;55168;51.120;17.024;2023-02-13T00:21:00;102230;;;4.1;100.0
68320;BME280;55168;51.120;17.024;2023-02-13T00:22:00;102230;;;4.1;100.0
68320;BME280;55168;51.120;17.024;2023-02-13T00:23:00;102230;;;4.1;100.0
68320;BME280;55168;51.120;17.024;2023-02-13T00:24:00;102230;;;4.1;100.0
68320;BME280;55168;51.120;17.024;2023-02-13T00:25:00;102230;;;4.1;100.0
68320;BME280;55168;51.120;17.024;2023-02-13T00:26:00;102220;;;4.1;100.0
68320;BME280;55168;51.120;17.024;2023-02-13T00:27:00;102220;;;4.1;100.0
68320;BME280;55168;51.120;17.024;2023-02-13T00:28:00;102220;;;4.1;100.0
68320;BME280;55168;51.120;17.024;2023-02-13T00:29:00;102220;;;4.1;100.0
68320;BME280;55168;51.120;17.024;2023-02-13T00:30:00;102230;;;4.1;100.0
68320;BME280;55168;51.120;17.024;2023-02-13T00:31:02;102230;;;4.1;100.0
68320;BME280;55168;51.120;17.024;2023-02-13T00:32:00;102220;;;4.1;100.0
68320;BME280;55168;51.120;17.024;2023-02-13T00:33:00;102220;;;4.1;100.0
68320;BME280;55168;51.120;17.024;2023-02-13T00:34:00;102220;;;4.1;100.0
68320;BME280;55168;51.120;17.024;2023-02-13T00:35:00;102220;;;4.1;100.0
68320;BME280;55168;51.120;17.024;2023-02-13T00:36:02;102220;;;4.1;100.0
68320;BME280;55168;51.120;17.024;2023-02-13T00:37:00;102220;;;4.1;100.0
68320;BME280;55168;51.120;17.024;2023-02-13T00:38:00;102230;;;4.1;100.0
68320;BME280;55168;51.120;17.024;2023-02-13T00:39:00;102230;;;4.1;100.0
68320;BME280;55168;51.120;17.024;2023-02-13T00:40:00;102230;;;4.1;100.0
68320;BME280;55168;51.120;17.024;2023-02-13T00:41:00;102230;;;4.1;100.0
68320;BME280;55168;51.120;17.024;2023-02-13T00:42:00;102220;;;4.1;100.0
68320;BME280;55168;51.120;17.024;2023-02-13T00:43:00;102220;;;4.1;100.0
68320;BME280;55168;51.120;17.024;2023-02-13T00:44:00;102230;;;4.1;100.0
68320;BME280;55168;51.120;17.024;2023-02-13T00:45:00;102220;;;4.1;100.0
68320;BME280;55168;51.120;17.024;2023-02-13T00:46:00;102230;;;4.1;100.0
68320;BME280;55168;51.120;17.024;2023-02-13T00:47:00;102230;;;4.1;100.0
68320;BME280;55168;51.120;17.024;2023-02-13T00:48:00;102230;;;4.1;100.0
68320;BME280;55168;51.120;17.024;2023-02-13T00:49:00;102230;;;4.1;100.0
68320;BME280;55168;51.120;17.024;2023-02-13T00:50:00;102230;;;4.1;100.0
68320;BME280;55168;51.120;17.024;2023-02-13T00:51:00;102230;;;4.1;100.0
68320;BME280;55168;51.120;17.024;2023-02-13T00:52:00;102230;;;4.1;100.0
68320;BME280;55168;51.120;17.024;2023-02-13T00:53:00;102230;;;4.1;100.0
68320;BME280;55168;51.120;17.024;2023-02-13T00:54:00;102230;;;4.1;100.0
68320;BME280;55168;51.120;17.024;2023-02-13T00:55:00;102230;;;4.1;100.0
68320;BME280;55168;51.120;17.024;2023-02-13T00:56:00;102230;;;4.1;100.0
68320;BME280;55168;51.120;17.024;2023-02-13T00:57:00;102230;;;4.1;100.0
68320;BME280;55168;51.120;17.024;2023-02-13T00:58:00;102230;;;4.1;100.0
68320;BME280;55168;51.120;17.024;2023-02-13T00:59:00;102230;;;4.1;100.0
68320;BME280;55168;51.120;17.024;2023-02-13T01:00:00;102230;;;4.1;100.0
68320;BME280;55168;51.120;17.024;2023-02-13T01:01:00;102230;;;4.2;100.0
68320;BME280;55168;51.120;17.024;2023-02-13T01:02:00;102230;;;4.2;100.0
68320;BME280;55168;51.120;17.024;2023-02-13T01:03:02;102230;;;4.2;100.0
68320;BME280;55168;51.120;17.024;2023-02-13T01:04:00;102230;;;4.2;100.0
68320;BME280;55168;51.120;17.024;2023-02-13T01:05:00;102230;;;4.2;100.0
68320;BME280;55168;51.120;17.024;2023-02-13T01:06:00;102230;;;4.2;100.0
68320;BME280;55168;51.120;17.024;2023-02-13T01:07:00;102220;;;4.2;100.0
68320;BME280;55168;51.120;17.024;2023-02-13T01:08:00;102220;;;4.1;100.0
68320;BME280;55168;51.120;17.024;2023-02-13T01:09:01;102220;;;4.2;100.0
68320;BME280;55168;51.120;17.024;2023-02-13T01:10:00;102230;;;4.1;100.0
68320;BME280;55168;51.120;17.024;2023-02-13T01:11:00;102230;;;4.1;100.0
68320;BME280;55168;51.120;17.024;2023-02-13T01:12:00;102230;;;4.1;100.0
68320;BME280;55168;51.120;17.024;2023-02-13T01:13:00;102230;;;4.1;100.0
68320;BME280;55168;51.120;17.024;2023-02-13T01:14:00;102230;;;4.2;100.0
68320;BME280;55168;51.120;17.024;2023-02-13T01:15:00;102220;;;4.2;100.0
68320;BME280;55168;51.120;17.024;2023-02-13T01:16:00;102220;;;4.2;100.0
68320;BME280;55168;51.120;17.024;2023-02-13T01:17:00;102230;;;4.2;100.0
68320;BME280;55168;51.120;17.024;2023-02-13T01:18:00;102220;;;4.2;100.0
68320;BME280;55168;51.120;17.024;2023-02-13T01:19:00;102220;;;4.2;100.0
68320;BME280;55168;51.120;17.024;2023-02-13T01:20:00;102220;;;4.2;100.0
68320;BME280;55168;51.120;17.024;2023-02-13T01:21:03;102220;;;4.1;100.0
68320;BME280;55168;51.120;17.024;2023-02-13T01:22:00;102220;;;4.2;100.0
68320;BME280;55168;51.120;17.024;2023-02-13T01:23:00;102220;;;4.1;100.0
68320;BME280;55168;51.120;17.024;2023-02-13T01:24:01;102220;;;4.1;100.0
68320;BME280;55168;51.120;17.024;2023-02-13T01:25:00;102210;;;4.1;100.0
68320;BME280;55168;51.120;17.024;2023-02-13T01:26:00;102210;;;4.1;100.0
68320;BME280;55168;51.120;17.024;2023-02-13T01:27:00;102210;;;4.1;100.0
68320;BME280;55168;51.120;17.024;2023-02-13T01:28:00;102210;;;4.1;100.0
68320;BME280;55168;51.120;17.024;2023-02-13T01:29:00;102210;;;4.1;100.0
68320;BME280;55168;51.120;17.024;2023-02-13T01:30:00;102210;;;4.1;100.0
68320;BME280;55168;51.120;17.024;2023-02-13T01:31:00;102210;;;4.1;100.0
68320;BME280;55168;51.120;17.024;2023-02-13T01:32:00;102210;;;4.1;100.0
68320;BME280;55168;51.120;17.024;2023-02-13T01:33:00;102220;;;4.1;100.0
68320;BME280;55168;51.120;17.024;2023-02-13T01:34:00;102220;;;4.1;100.0
68320;BME280;55168;51.120;17.024;2023-02-13T01:35:00;102210;;;4.1;100.0
68320;BME280;55168;51.120;17.024;2023-02-13T01:36:04;102210;;;4.1;100.0
68320;BME280;55168;51.120;17.024;2023-02-13T01:37:00;102210;;;4.1;100.0
68320;BME280;55168;51.120;17.024;2023-02-13T01:38:00;102210;;;4.1;100.0
68320;BME280;55168;51.120;17.024;2023-02-13T01:39:00;102210;;;4.1;100.0
68320;BME280;55168;51.120;17.024;2023-02-13T01:40:00;102210;;;4.1;100.0
68320;BME280;55168;51.120;17.024;2023-02-13T01:41:00;102210;;;4.2;100.0
68320;BME280;55168;51.120;17.024;2023-02-13T01:42:00;102210;;;4.2;100.0
68320;BME280;55168;51.120;17.024;2023-02-13T01:43:00;102210;;;4.2;100.0
68320;BME280;55168;51.120;17.024;2023-02-13T01:44:00;102210;;;4.2;100.0
68320;BME280;55168;51.120;17.024;2023-02-13T01:46:00;102210;;;4.2;100.0
68320;BME280;55168;51.120;17.024;2023-02-13T01:47:00;102210;;;4.2;100.0
68320;BME280;55168;51.120;17.024;2023-02-13T01:48:10;102210;;;4.2;100.0
68320;BME280;55168;51.120;17.024;2023-02-13T01:49:02;102210;;;4.2;100.0
68320;BME280;55168;51.120;17.024;2023-02-13T01:50:02;102210;;;4.2;100.0
68320;BME280;55168;51.120;17.024;2023-02-13T01:51:01;102210;;;4.2;100.0
68320;BME280;55168;51.120;17.024;2023-02-13T01:52:00;102200;;;4.2;100.0
68320;BME280;55168;51.120;17.024;2023-02-13T01:53:03;102200;;;4.2;100.0
68320;BME280;55168;51.120;17.024;2023-02-13T01:54:02;102210;;;4.2;100.0
68320;BME280;55168;51.120;17.024;2023-02-13T01:55:00;102200;;;4.2;100.0
68320;BME280;55168;51.120;17.024;2023-02-13T01:56:03;102210;;;4.2;100.0
68320;BME280;55168;51.120;17.024;2023-02-13T01:57:02;102210;;;4.2;100.0
68320;BME280;55168;51.120;17.024;2023-02-13T01:58:01;102210;;;4.2;100.0
68320;BME280;55168;51.120;17.024;2023-02-13T01:59:00;102210;;;4.2;100.0
68320;BME280;55168;51.120;17.024;2023-02-13T02:00:02;102200;;;4.2;100.0
68320;BME280;55168;51.120;17.024;2023-02-13T02:01:00;102200;;;4.2;100.0
68320;BME280;55168;51.120;17.024;2023-02-13T02:02:00;102200;;;4.2;100.0
68320;BME280;55168;51.120;17.024;2023-02-13T02:03:11;102190;;;4.2;100.0
68320;BME280;55168;51.120;17.024;2023-02-13T02:04:15;102190;;;4.2;100.0
68320;BME280;55168;51.120;17.024;2023-02-13T02:05:00;102190;;;4.2;100.0
68320;BME280;55168;51.120;17.024;2023-02-13T02:06:00;102190;;;4.2;100.0
68320;BME280;55168;51.120;17.024;2023-02-13T02:07:02;102190;;;4.2;100.0
68320;BME280;55168;51.120;17.024;2023-02-13T02:08:00;102190;;;4.2;100.0
68320;BME280;55168;51.120;17.024;2023-02-13T02:09:01;102190;;;4.2;100.0
68320;BME280;55168;51.120;17.024;2023-02-13T02:10:01;102180;;;4.2;100.0
68320;BME280;55168;51.120;17.024;2023-02-13T02:11:02;102190;;;4.2;100.0
68320;BME280;55168;51.120;17.024;2023-02-13T02:12:01;102190;;;4.2;100.0
68320;BME280;55168;51.120;17.024;2023-02-13T02:13:04;102190;;;4.2;100.0
68320;BME280;55168;51.120;17.024;2023-02-13T02:14:00;102190;;;4.2;100.0
68320;BME280;55168;51.120;17.024;2023-02-13T02:15:00;102190;;;4.2;100.0
68320;BME280;55168;51.120;17.024;2023-02-13T02:16:00;102190;;;4.2;100.0
68320;BME280;55168;51.120;17.024;2023-02-13T02:17:00;102190;;;4.2;100.0
68320;BME280;55168;51.120;17.024;2023-02-13T02:18:00;102190;;;4.2;100.0
68320;BME280;55168;51.120;17.024;2023-02-13T02:19:00;102190;;;4.2;100.0
68320;BME280;55168;51.120;17.024;2023-02-13T02:20:08;102190;;;4.2;100.0
68320;BME280;55168;51.120;17.024;2023-02-13T02:24:13;102190;;;4.2;100.0
68320;BME280;55168;51.120;17.024;2023-02-13T02:25:10;102190;;;4.2;100.0
68320;BME280;55168;51.120;17.024;2023-02-13T02:26:05;102190;;;4.2;100.0
68320;BME280;55168;51.120;17.024;2023-02-13T02:27:04;102190;;;4.2;100.0
68320;BME280;55168;51.120;17.024;2023-02-13T02:31:05;102180;;;4.2;100.0
68320;BME280;55168;51.120;17.024;2023-02-13T02:32:02;102180;;;4.2;100.0
68320;BME280;55168;51.120;17.024;2023-02-13T02:33:06;102190;;;4.2;100.0
68320;BME280;55168;51.120;17.024;2023-02-13T02:34:05;102190;;;4.2;100.0
68320;BME280;55168;51.120;17.024;2023-02-13T02:36:11;102180;;;4.2;100.0
68320;BME280;55168;51.120;17.024;2023-02-13T02:39:05;102180;;;4.2;100.0
68320;BME280;55168;51.120;17.024;2023-02-13T02:40:19;102180;;;4.2;100.0
68320;BME280;55168;51.120;17.024;2023-02-13T02:41:05;102180;;;4.2;100.0
68320;BME280;55168;51.120;17.024;2023-02-13T02:42:04;102180;;;4.2;100.0
68320;BME280;55168;51.120;17.024;2023-02-13T02:43:05;102180;;;4.2;100.0
68320;BME280;55168;51.120;17.024;2023-02-13T02:44:06;102180;;;4.2;100.0
68320;BME280;55168;51.120;17.024;2023-02-13T02:47:07;102180;;;4.2;100.0
68320;BME280;55168;51.120;17.024;2023-02-13T02:48:02;102180;;;4.2;100.0
68320;BME280;55168;51.120;17.024;2023-02-13T02:49:03;102180;;;4.2;100.0
68320;BME280;55168;51.120;17.024;2023-02-13T02:51:18;102180;;;4.2;100.0
68320;BME280;55168;51.120;17.024;2023-02-13T02:52:05;102190;;;4.2;100.0
68320;BME280;55168;51.120;17.024;2023-02-13T02:53:04;102190;;;4.2;100.0
68320;BME280;55168;51.120;17.024;2023-02-13T02:54:18;102190;;;4.2;100.0
68320;BME280;55168;51.120;17.024;2023-02-13T02:55:03;102180;;;4.2;100.0
68320;BME280;55168;51.120;17.024;2023-02-13T02:56:10;102180;;;4.2;100.0
68320;BME280;55168;51.120;17.024;2023-02-13T02:57:04;102180;;;4.2;100.0
68320;BME280;55168;51.120;17.024;2023-02-13T02:58:02;102180;;;4.2;100.0
68320;BME280;55168;51.120;17.024;2023-02-13T02:59:01;102190;;;4.2;100.0
68320;BME280;55168;51.120;17.024;2023-02-13T03:00:00;102190;;;4.2;100.0
68320;BME280;55168;51.120;17.024;2023-02-13T03:01:00;102190;;;4.2;100.0
68320;BME280;55168;51.120;17.024;2023-02-13T03:02:00;102180;;;4.2;100.0
68320;BME280;55168;51.120;17.024;2023-02-13T03:03:00;102180;;;4.2;100.0
68320;BME280;55168;51.120;17.024;2023-02-13T03:04:00;102190;;;4.2;100.0
68320;BME280;55168;51.120;17.024;2023-02-13T03:05:00;102190;;;4.2;100.0
68320;BME280;55168;51.120;17.024;2023-02-13T03:06:00;102190;;;4.2;100.0
68320;BME280;55168;51.120;17.024;2023-02-13T03:07:01;102190;;;4.2;100.0
68320;BME280;55168;51.120;17.024;2023-02-13T03:08:00;102190;;;4.2;100.0
68320;BME280;55168;51.120;17.024;2023-02-13T03:09:00;102190;;;4.2;100.0
68320;BME280;55168;51.120;17.024;2023-02-13T03:10:04;102190;;;4.2;100.0
68320;BME280;55168;51.120;17.024;2023-02-13T03:11:00;102190;;;4.2;100.0
68320;BME280;55168;51.120;17.024;2023-02-13T03:12:00;102190;;;4.2;100.0
68320;BME280;55168;51.120;17.024;2023-02-13T03:13:00;102190;;;4.2;100.0
68320;BME280;55168;51.120;17.024;2023-02-13T03:14:00;102190;;;4.2;100.0
68320;BME280;55168;51.120;17.024;2023-02-13T03:15:00;102190;;;4.2;100.0
68320;BME280;55168;51.120;17.024;2023-02-13T03:16:00;102190;;;4.2;100.0
68320;BME280;55168;51.120;17.024;2023-02-13T03:17:00;102180;;;4.2;100.0
68320;BME280;55168;51.120;17.024;2023-02-13T03:18:00;102190;;;4.2;100.0
68320;BME280;55168;51.120;17.024;2023-02-13T03:19:00;102180;;;4.2;100.0
68320;BME280;55168;51.120;17.024;2023-02-13T03:20:03;102180;;;4.2;100.0
68320;BME280;55168;51.120;17.024;2023-02-13T03:21:04;102180;;;4.2;100.0
68320;BME280;55168;51.120;17.024;2023-02-13T03:22:03;102170;;;4.2;100.0
68320;BME280;55168;51.120;17.024;2023-02-13T03:24:03;102180;;;4.2;100.0
68320;BME280;55168;51.120;17.024;2023-02-13T03:25:17;102170;;;4.2;100.0
68320;BME280;55168;51.120;17.024;2023-02-13T03:27:05;102180;;;4.2;100.0
68320;BME280;55168;51.120;17.024;2023-02-13T03:29:06;102180;;;4.2;100.0
68320;BME280;55168;51.120;17.024;2023-02-13T03:30:02;102190;;;4.2;100.0
68320;BME280;55168;51.120;17.024;2023-02-13T03:32:04;102190;;;4.2;100.0
68320;BME280;55168;51.120;17.024;2023-02-13T03:33:10;102190;;;4.2;100.0
68320;BME280;55168;51.120;17.024;2023-02-13T03:34:01;102190;;;4.2;100.0
68320;BME280;55168;51.120;17.024;2023-02-13T03:35:05;102190;;;4.2;100.0
68320;BME280;55168;51.120;17.024;2023-02-13T03:36:03;102190;;;4.2;100.0
68320;BME280;55168;51.120;17.024;2023-02-13T03:37:01;102180;;;4.2;100.0
68320;BME280;55168;51.120;17.024;2023-02-13T03:38:02;102180;;;4.2;100.0
68320;BME280;55168;51.120;17.024;2023-02-13T03:39:03;102190;;;4.2;100.0
68320;BME280;55168;51.120;17.024;2023-02-13T03:40:02;102190;;;4.2;100.0
68320;BME280;55168;51.120;17.024;2023-02-13T03:41:03;102190;;;4.2;100.0
68320;BME280;55168;51.120;17.024;2023-02-13T03:42:00;102190;;;4.2;100.0
68320;BME280;55168;51.120;17.024;2023-02-13T03:45:02;102190;;;4.2;100.0
68320;BME280;55168;51.120;17.024;2023-02-13T03:46:00;102190;;;4.2;100.0
68320;BME280;55168;51.120;17.024;2023-02-13T03:47:00;102190;;;4.2;100.0
68320;BME280;55168;51.120;17.024;2023-02-13T03:48:00;102190;;;4.2;100.0
68320;BME280;55168;51.120;17.024;2023-02-13T03:49:00;102190;;;4.2;100.0
68320;BME280;55168;51.120;17.024;2023-02-13T03:50:00;102190;;;4.2;100.0
68320;BME280;55168;51.120;17.024;2023-02-13T03:51:00;102200;;;4.2;100.0
68320;BME280;55168;51.120;17.024;2023-02-13T03:52:02;102190;;;4.2;100.0
68320;BME280;55168;51.120;17.024;2023-02-13T03:53:01;102190;;;4.2;100.0
68320;BME280;55168;51.120;17.024;2023-02-13T03:54:00;102200;;;4.2;100.0
68320;BME280;55168;51.120;17.024;2023-02-13T03:55:02;102200;;;4.2;100.0
68320;BME280;55168;51.120;17.024;2023-02-13T03:56:00;102200;;;4.1;100.0
68320;BME280;55168;51.120;17.024;2023-02-13T03:57:00;102200;;;4.2;100.0
68320;BME280;55168;51.120;17.024;2023-02-13T03:58:02;102190;;;4.2;100.0
68320;BME280;55168;51.120;17.024;2023-02-13T03:59:00;102200;;;4.2;100.0
68320;BME280;55168;51.120;17.024;2023-02-13T04:00:00;102200;;;4.2;100.0
68320;BME280;55168;51.120;17.024;2023-02-13T04:01:00;102190;;;4.2;100.0
68320;BME280;55168;51.120;17.024;2023-02-13T04:03:04;102190;;;4.2;100.0
68320;BME280;55168;51.120;17.024;2023-02-13T04:04:04;102200;;;4.1;100.0
68320;BME280;55168;51.120;17.024;2023-02-13T04:05:05;102190;;;4.1;100.0
68320;BME280;55168;51.120;17.024;2023-02-13T04:06:01;102200;;;4.1;100.0
68320;BME280;55168;51.120;17.024;2023-02-13T04:07:04;102190;;;4.1;100.0
68320;BME280;55168;51.120;17.024;2023-02-13T04:08:00;102190;;;4.1;100.0
68320;BME280;55168;51.120;17.024;2023-02-13T04:09:00;102190;;;4.1;100.0
68320;BME280;55168;51.120;17.024;2023-02-13T04:10:04;102190;;;4.1;100.0
68320;BME280;55168;51.120;17.024;2023-02-13T04:11:17;102190;;;4.1;100.0
68320;BME280;55168;51.120;17.024;2023-02-13T04:13:08;102190;;;4.1;100.0
68320;BME280;55168;51.120;17.024;2023-02-13T04:14:00;102190;;;4.1;100.0
68320;BME280;55168;51.120;17.024;2023-02-13T04:15:02;102190;;;4.1;100.0
68320;BME280;55168;51.120;17.024;2023-02-13T04:16:17;102190;;;4.1;100.0
68320;BME280;55168;51.120;17.024;2023-02-13T04:17:04;102190;;;4.0;100.0
68320;BME280;55168;51.120;17.024;2023-02-13T04:18:02;102190;;;4.0;100.0
68320;BME280;55168;51.120;17.024;2023-02-13T04:19:00;102190;;;4.0;100.0
68320;BME280;55168;51.120;17.024;2023-02-13T04:20:00;102190;;;4.0;100.0
68320;BME280;55168;51.120;17.024;2023-02-13T04:21:01;102190;;;4.0;100.0
68320;BME280;55168;51.120;17.024;2023-02-13T04:22:00;102190;;;4.0;100.0
68320;BME280;55168;51.120;17.024;2023-02-13T04:23:04;102180;;;4.0;100.0
68320;BME280;55168;51.120;17.024;2023-02-13T04:24:00;102180;;;4.0;100.0
68320;BME280;55168;51.120;17.024;2023-02-13T04:25:00;102180;;;4.0;100.0
68320;BME280;55168;51.120;17.024;2023-02-13T04:26:01;102180;;;4.0;100.0
68320;BME280;55168;51.120;17.024;2023-02-13T04:27:00;102180;;;4.0;100.0
68320;BME280;55168;51.120;17.024;2023-02-13T04:28:00;102180;;;4.0;100.0
68320;BME280;55168;51.120;17.024;2023-02-13T04:29:00;102180;;;4.0;100.0
68320;BME280;55168;51.120;17.024;2023-02-13T04:30:00;102180;;;4.0;100.0
68320;BME280;55168;51.120;17.024;2023-02-13T04:31:00;102180;;;4.0;100.0
68320;BME280;55168;51.120;17.024;2023-02-13T04:32:00;102180;;;4.0;100.0
68320;BME280;55168;51.120;17.024;2023-02-13T04:33:00;102180;;;4.0;100.0
68320;BME280;55168;51.120;17.024;2023-02-13T04:34:00;102180;;;4.0;100.0
68320;BME280;55168;51.120;17.024;2023-02-13T04:35:00;102180;;;4.0;100.0
68320;BME280;55168;51.120;17.024;2023-02-13T04:36:00;102180;;;4.0;100.0
68320;BME280;55168;51.120;17.024;2023-02-13T04:37:00;102180;;;4.0;100.0
68320;BME280;55168;51.120;17.024;2023-02-13T04:38:00;102180;;;4.0;100.0
68320;BME280;55168;51.120;17.024;2023-02-13T04:39:00;102180;;;4.0;100.0
68320;BME280;55168;51.120;17.024;2023-02-13T04:40:00;102180;;;3.9;100.0
68320;BME280;55168;51.120;17.024;2023-02-13T04:41:00;102180;;;3.9;100.0
68320;BME280;55168;51.120;17.024;2023-02-13T04:42:00;102180;;;3.9;100.0
68320;BME280;55168;51.120;17.024;2023-02-13T04:43:00;102180;;;3.9;100.0
68320;BME280;55168;51.120;17.024;2023-02-13T04:44:00;102180;;;3.9;100.0
68320;BME280;55168;51.120;17.024;2023-02-13T04:45:00;102180;;;3.9;100.0
68320;BME280;55168;51.120;17.024;2023-02-13T04:46:00;102180;;;3.9;100.0
68320;BME280;55168;51.120;17.024;2023-02-13T04:47:00;102180;;;3.9;100.0
68320;BME280;55168;51.120;17.024;2023-02-13T04:48:00;102180;;;3.9;100.0
68320;BME280;55168;51.120;17.024;2023-02-13T04:49:00;102180;;;3.9;100.0
68320;BME280;55168;51.120;17.024;2023-02-13T04:50:00;102180;;;3.9;100.0
68320;BME280;55168;51.120;17.024;2023-02-13T04:51:00;102180;;;3.9;100.0
68320;BME280;55168;51.120;17.024;2023-02-13T04:52:00;102180;;;3.9;100.0
68320;BME280;55168;51.120;17.024;2023-02-13T04:53:00;102180;;;3.9;100.0
68320;BME280;55168;51.120;17.024;2023-02-13T04:54:00;102170;;;3.9;100.0
68320;BME280;55168;51.120;17.024;2023-02-13T04:55:00;102170;;;3.9;100.0
68320;BME280;55168;51.120;17.024;2023-02-13T04:56:00;102180;;;3.9;100.0
68320;BME280;55168;51.120;17.024;2023-02-13T04:57:00;102180;;;3.9;100.0
68320;BME280;55168;51.120;17.024;2023-02-13T04:58:00;102170;;;3.9;100.0
68320;BME280;55168;51.120;17.024;2023-02-13T04:59:00;102180;;;3.9;100.0
68320;BME280;55168;51.120;17.024;2023-02-13T05:00:00;102180;;;3.9;100.0
68320;BME280;55168;51.120;17.024;2023-02-13T05:01:00;102170;;;3.9;100.0
68320;BME280;55168;51.120;17.024;2023-02-13T05:02:00;102170;;;3.9;100.0
68320;BME280;55168;51.120;17.024;2023-02-13T05:03:03;102170;;;3.9;100.0
68320;BME280;55168;51.120;17.024;2023-02-13T05:04:00;102170;;;3.9;100.0
68320;BME280;55168;51.120;17.024;2023-02-13T05:05:00;102160;;;3.9;100.0
68320;BME280;55168;51.120;17.024;2023-02-13T05:06:00;102160;;;3.9;100.0
68320;BME280;55168;51.120;17.024;2023-02-13T05:07:00;102160;;;3.9;100.0
68320;BME280;55168;51.120;17.024;2023-02-13T05:08:00;102160;;;3.9;100.0
68320;BME280;55168;51.120;17.024;2023-02-13T05:09:00;102160;;;3.9;100.0
68320;BME280;55168;51.120;17.024;2023-02-13T05:10:00;102160;;;3.9;100.0
68320;BME280;55168;51.120;17.024;2023-02-13T05:11:00;102160;;;3.9;100.0
68320;BME280;55168;51.120;17.024;2023-02-13T05:12:00;102160;;;3.9;100.0
68320;BME280;55168;51.120;17.024;2023-02-13T05:13:00;102160;;;3.9;100.0
68320;BME280;55168;51.120;17.024;2023-02-13T05:14:00;102160;;;3.9;100.0
68320;BME280;55168;51.120;17.024;2023-02-13T05:15:00;102170;;;3.9;100.0
68320;BME280;55168;51.120;17.024;2023-02-13T05:16:00;102160;;;3.9;100.0
68320;BME280;55168;51.120;17.024;2023-02-13T05:17:00;102170;;;3.9;100.0
68320;BME280;55168;51.120;17.024;2023-02-13T05:18:00;102160;;;3.9;100.0
68320;BME280;55168;51.120;17.024;2023-02-13T05:19:00;102170;;;3.9;100.0
68320;BME280;55168;51.120;17.024;2023-02-13T05:20:00;102160;;;3.9;100.0
68320;BME280;55168;51.120;17.024;2023-02-13T05:21:00;102170;;;3.9;100.0
68320;BME280;55168;51.120;17.024;2023-02-13T05:22:00;102170;;;3.9;100.0
68320;BME280;55168;51.120;17.024;2023-02-13T05:23:00;102170;;;3.9;100.0
68320;BME280;55168;51.120;17.024;2023-02-13T05:24:00;102170;;;3.9;100.0
68320;BME280;55168;51.120;17.024;2023-02-13T05:25:00;102170;;;3.9;100.0
68320;BME280;55168;51.120;17.024;2023-02-13T05:26:00;102170;;;3.9;100.0
68320;BME280;55168;51.120;17.024;2023-02-13T05:27:00;102170;;;3.9;100.0
68320;BME280;55168;51.120;17.024;2023-02-13T05:28:00;102170;;;3.9;100.0
68320;BME280;55168;51.120;17.024;2023-02-13T05:29:00;102170;;;3.9;100.0
68320;BME280;55168;51.120;17.024;2023-02-13T05:30:00;102170;;;3.9;100.0
68320;BME280;55168;51.120;17.024;2023-02-13T05:31:00;102170;;;4.0;100.0
68320;BME280;55168;51.120;17.024;2023-02-13T05:32:00;102170;;;3.9;100.0
68320;BME280;55168;51.120;17.024;2023-02-13T05:33:00;102170;;;3.9;100.0
68320;BME280;55168;51.120;17.024;2023-02-13T05:34:00;102170;;;3.9;100.0
68320;BME280;55168;51.120;17.024;2023-02-13T05:35:00;102170;;;3.9;100.0
68320;BME280;55168;51.120;17.024;2023-02-13T05:36:00;102170;;;3.9;100.0
68320;BME280;55168;51.120;17.024;2023-02-13T05:37:00;102170;;;3.9;100.0
68320;BME280;55168;51.120;17.024;2023-02-13T05:38:00;102170;;;3.9;100.0
68320;BME280;55168;51.120;17.024;2023-02-13T05:39:00;102170;;;3.9;100.0
68320;BME280;55168;51.120;17.024;2023-02-13T05:40:00;102170;;;3.9;100.0
68320;BME280;55168;51.120;17.024;2023-02-13T05:41:00;102170;;;3.9;100.0
68320;BME280;55168;51.120;17.024;2023-02-13T05:42:00;102170;;;3.9;100.0
68320;BME280;55168;51.120;17.024;2023-02-13T05:43:00;102170;;;3.9;100.0
68320;BME280;55168;51.120;17.024;2023-02-13T05:44:00;102170;;;3.9;100.0
68320;BME280;55168;51.120;17.024;2023-02-13T05:45:00;102170;;;4.0;100.0
68320;BME280;55168;51.120;17.024;2023-02-13T05:46:01;102170;;;4.0;100.0
68320;BME280;55168;51.120;17.024;2023-02-13T05:47:00;102170;;;4.0;100.0
68320;BME280;55168;51.120;17.024;2023-02-13T05:48:00;102170;;;4.0;100.0
68320;BME280;55168;51.120;17.024;2023-02-13T05:49:00;102170;;;4.0;100.0
68320;BME280;55168;51.120;17.024;2023-02-13T05:50:00;102170;;;4.0;100.0
68320;BME280;55168;51.120;17.024;2023-02-13T05:51:00;102170;;;4.0;100.0